Main page
METAR-TAF:

METAR-TAF

Airports :

Edinburgh Airport

Edinburgh, Scotland

latitude: 55-57N, longitude: 003-21W, elevation: 41 m

Current weather observation

The report was made 38 minutes ago, at 00:50 UTC
Wind 5 kt from the North/Northwest, varying between Northwest and North/Northeast
Temperature 4°C
Humidity 75%
Pressure 1014 hPa
Visibility 10 km or more
Broken clouds at a height of 4400 ft

METAR: EGPH 150050Z 34005KT 320V020 9999 BKN044 04/00 Q1014

Time: 01:28 (01:28 UTC)

Forecast

The report was made 2 hours and 33 minutes ago, at 22:55 UTC
Forecast valid from 15 at 00 UTC to 15 at 24 UTC
Wind 9 kt from the North/Northeast
Visibility 10 km or more
Few clouds at a height of 4500 ft
Probability 30% :
Temporary
from 15 at 11 UTC to 15 at 21 UTC
Visibility: 7000 m
Broken clouds at a height of 1400 ft
rain showers

TAF: EGPH 142255Z 1500/1524 03009KT 9999 FEW045 PROB30 TEMPO 1511/1521 7000 SHRA BKN014

Weather observations and forecasts of more than 4000 airports (METAR and TAF reports).

The available stations are represented by yellow and red dots on the map.

Hover mouse over dot to see the name of the station.

Then click to see weather observations and forecasts.

To change the map : click on the green buttons with a black cross to zoom in, on the green button with a dash to zoom out, or on the green arrows for adjacent maps.


METAR-TAF: